createdAt,value
2019-02-07T00:01:58.716Z,13.70
2019-02-07T00:04:25.120Z,14.63
2019-02-07T00:06:54.560Z,13.67
2019-02-07T00:09:20.554Z,17.03
2019-02-07T00:11:47.320Z,12.37
2019-02-07T00:14:13.926Z,15.60
2019-02-07T00:16:40.464Z,14.40
2019-02-07T00:19:06.948Z,13.37
2019-02-07T00:21:33.601Z,12.37
2019-02-07T00:24:00.149Z,15.37
2019-02-07T00:26:26.861Z,16.63
2019-02-07T00:28:53.330Z,14.83
2019-02-07T00:31:19.881Z,14.93
2019-02-07T00:33:46.372Z,12.73
2019-02-07T00:36:13.198Z,13.77
2019-02-07T00:38:39.905Z,12.80
2019-02-07T00:41:06.518Z,14.13
2019-02-07T00:43:33.079Z,13.43
2019-02-07T00:45:59.500Z,13.30
2019-02-07T00:48:26.553Z,14.07
2019-02-07T00:50:53.228Z,12.87
2019-02-07T00:53:19.746Z,15.50
2019-02-07T00:55:46.419Z,12.53
2019-02-07T00:58:12.824Z,13.40
2019-02-07T01:00:39.307Z,14.63
2019-02-07T01:03:06.210Z,13.53
2019-02-07T01:05:32.660Z,12.87
2019-02-07T01:07:59.500Z,12.80
2019-02-07T01:10:29.086Z,12.03
2019-02-07T01:12:55.875Z,13.53
2019-02-07T01:15:24.710Z,12.23
2019-02-07T01:17:51.185Z,14.13
2019-02-07T01:20:18.000Z,12.63
2019-02-07T01:22:45.383Z,15.20
2019-02-07T01:25:19.640Z,15.37
2019-02-07T01:27:46.116Z,11.83
2019-02-07T01:30:24.696Z,12.30
2019-02-07T01:32:51.593Z,13.00
2019-02-07T01:35:18.200Z,13.93
2019-02-07T01:37:44.759Z,11.97
2019-02-07T01:40:14.995Z,12.13
2019-02-07T01:42:41.569Z,12.37
2019-02-07T01:45:13.421Z,13.50
2019-02-07T01:47:40.413Z,15.10
2019-02-07T01:50:14.325Z,12.57
2019-02-07T01:52:41.021Z,12.40
2019-02-07T01:55:08.040Z,12.80
2019-02-07T01:57:34.532Z,14.17
2019-02-07T02:00:01.135Z,11.73
2019-02-07T02:02:27.444Z,13.37
2019-02-07T02:04:54.044Z,12.70
2019-02-07T02:07:20.758Z,13.60
2019-02-07T02:09:47.659Z,12.13
2019-02-07T02:12:14.263Z,13.10
2019-02-07T02:14:41.132Z,11.63
2019-02-07T02:17:07.629Z,10.63
2019-02-07T02:19:34.199Z,15.20
2019-02-07T02:22:00.924Z,11.50
2019-02-07T02:24:27.313Z,12.03
2019-02-07T02:26:53.713Z,12.93
2019-02-07T02:29:20.108Z,11.93
2019-02-07T02:31:46.538Z,13.07
2019-02-07T02:34:13.018Z,15.30
2019-02-07T02:36:39.521Z,14.27
2019-02-07T02:39:07.556Z,15.37
2019-02-07T02:41:34.057Z,13.73
2019-02-07T02:44:00.427Z,13.07
2019-02-07T02:46:27.251Z,12.57
2019-02-07T02:49:13.703Z,12.53
2019-02-07T02:51:40.187Z,13.80
2019-02-07T02:54:08.625Z,15.80
2019-02-07T02:56:35.235Z,13.50
2019-02-07T02:59:01.842Z,13.13
2019-02-07T03:01:32.974Z,14.30
2019-02-07T03:04:01.720Z,12.30
2019-02-07T03:06:30.113Z,16.80
2019-02-07T03:09:15.122Z,13.27
2019-02-07T03:11:46.211Z,13.23
2019-02-07T03:14:20.305Z,13.60
2019-02-07T03:16:57.687Z,14.67
2019-02-07T03:19:42.735Z,13.73
2019-02-07T03:22:17.500Z,17.43
2019-02-07T03:25:04.465Z,15.33
2019-02-07T03:27:44.767Z,14.87
2019-02-07T03:30:19.773Z,14.70
2019-02-07T03:32:50.751Z,12.70
2019-02-07T03:35:19.189Z,15.50
2019-02-07T03:38:03.848Z,15.40
2019-02-07T03:40:40.960Z,14.80
2019-02-07T03:43:12.193Z,15.43
2019-02-07T03:45:46.702Z,15.33
2019-02-07T03:48:21.496Z,16.47
2019-02-07T03:51:06.511Z,14.30
2019-02-07T03:53:47.096Z,16.43
2019-02-07T03:56:27.696Z,13.40
2019-02-07T03:58:55.895Z,16.07
2019-02-07T04:01:41.049Z,14.63
2019-02-07T04:04:21.394Z,13.40
2019-02-07T04:07:06.309Z,12.47
2019-02-07T04:09:51.564Z,23.77
2019-02-07T04:12:22.915Z,14.20
2019-02-07T04:15:00.060Z,13.63
2019-02-07T04:17:28.972Z,12.60
2019-02-07T04:20:06.549Z,13.27
2019-02-07T04:22:34.731Z,13.13
2019-02-07T04:25:06.001Z,12.90
2019-02-07T04:27:40.331Z,18.77
2019-02-07T04:30:16.808Z,13.70
2019-02-07T04:32:57.475Z,14.07
2019-02-07T04:35:41.075Z,11.97
2019-02-07T04:38:26.409Z,12.53
2019-02-07T04:41:00.774Z,12.37
2019-02-07T04:43:47.184Z,12.57
2019-02-07T04:46:26.668Z,13.80
2019-02-07T04:49:03.647Z,11.63
2019-02-07T04:51:37.728Z,11.13
2019-02-07T04:54:12.444Z,12.47
2019-02-07T04:56:49.867Z,14.63
2019-02-07T04:59:20.894Z,11.23
2019-02-07T05:02:01.324Z,12.10
2019-02-07T05:04:46.832Z,9.97
2019-02-07T05:07:15.425Z,12.70
2019-02-07T05:09:43.792Z,14.50
2019-02-07T05:12:12.240Z,13.33
2019-02-07T05:14:43.335Z,11.30
2019-02-07T05:17:14.901Z,13.77
2019-02-07T05:19:43.316Z,11.87
2019-02-07T05:22:11.820Z,11.47
2019-02-07T05:24:40.236Z,12.43
2019-02-07T05:27:25.182Z,12.73
2019-02-07T05:29:53.948Z,15.53
2019-02-07T05:32:31.504Z,15.87
2019-02-07T05:35:18.342Z,13.77
2019-02-07T05:38:02.012Z,11.90
2019-02-07T05:40:30.448Z,11.50
2019-02-07T05:43:10.861Z,15.93
2019-02-07T05:45:42.163Z,13.27
2019-02-07T05:48:22.461Z,14.60
2019-02-07T05:50:56.714Z,14.27
2019-02-07T05:53:25.216Z,14.50
2019-02-07T05:55:59.668Z,16.53
2019-02-07T05:58:46.581Z,14.67
2019-02-07T06:01:26.924Z,14.47
2019-02-07T06:04:01.599Z,12.57
2019-02-07T06:06:48.401Z,15.17
2019-02-07T06:09:17.840Z,12.37
2019-02-07T06:11:58.346Z,13.77
2019-02-07T06:14:26.756Z,13.43
2019-02-07T06:17:12.280Z,17.27
2019-02-07T06:19:57.088Z,14.13
2019-02-07T06:22:34.374Z,16.83
2019-02-07T06:25:03.168Z,14.40
2019-02-07T06:27:49.527Z,15.57
2019-02-07T06:30:26.786Z,15.17
2019-02-07T06:33:00.956Z,13.00
2019-02-07T06:35:32.061Z,14.83
2019-02-07T06:38:17.331Z,15.33
2019-02-07T06:41:03.803Z,14.23
2019-02-07T06:43:38.093Z,12.60
2019-02-07T06:46:25.095Z,15.33
2019-02-07T06:48:53.427Z,13.10
2019-02-07T06:51:22.396Z,15.20
2019-02-07T06:53:50.807Z,14.03
2019-02-07T06:56:34.207Z,12.07
2019-02-07T06:59:14.631Z,14.93
2019-02-07T07:02:00.400Z,15.93
2019-02-07T07:04:45.542Z,14.03
2019-02-07T07:07:13.965Z,17.40
2019-02-07T07:09:57.911Z,12.77
2019-02-07T07:12:29.310Z,16.40
2019-02-07T07:15:03.860Z,14.60
2019-02-07T07:17:44.126Z,13.67
2019-02-07T07:20:31.518Z,14.90
2019-02-07T07:23:11.656Z,14.77
2019-02-07T07:25:42.825Z,14.57
2019-02-07T07:28:14.151Z,14.63
2019-02-07T07:30:48.517Z,16.67
2019-02-07T07:33:33.516Z,16.47
2019-02-07T07:36:05.301Z,14.53
2019-02-07T07:38:42.660Z,15.93
2019-02-07T07:41:10.950Z,15.80
2019-02-07T07:43:56.022Z,14.53
2019-02-07T07:46:30.588Z,15.20
2019-02-07T07:49:10.687Z,15.07
2019-02-07T07:51:51.313Z,14.27
2019-02-07T07:54:34.938Z,16.13
2019-02-07T07:57:15.378Z,18.97
2019-02-07T07:59:52.863Z,16.20
2019-02-07T08:02:33.198Z,15.70
2019-02-07T08:05:01.648Z,15.00
2019-02-07T08:07:38.872Z,16.17
2019-02-07T08:10:11.805Z,17.73
2019-02-07T08:12:40.346Z,15.90
2019-02-07T08:15:19.553Z,14.67
2019-02-07T08:17:50.800Z,13.83
2019-02-07T08:20:28.485Z,15.40
2019-02-07T08:22:59.793Z,16.10
2019-02-07T08:25:37.032Z,15.70
2019-02-07T08:28:14.523Z,16.80
2019-02-07T08:30:54.652Z,15.23
2019-02-07T08:33:23.462Z,14.63
2019-02-07T08:35:52.072Z,14.87
2019-02-07T08:38:20.379Z,15.30
2019-02-07T08:40:51.626Z,16.90
2019-02-07T08:43:26.283Z,15.40
2019-02-07T08:45:54.682Z,14.53
2019-02-07T08:48:39.990Z,14.83
2019-02-07T08:51:08.190Z,13.87
2019-02-07T08:53:39.289Z,11.67
2019-02-07T08:56:10.547Z,14.67
2019-02-07T08:58:51.460Z,15.23
2019-02-07T09:01:19.853Z,14.17
2019-02-07T09:03:57.141Z,14.03
2019-02-07T09:06:25.673Z,13.67
2019-02-07T09:08:59.833Z,14.03
2019-02-07T09:11:28.246Z,14.87
2019-02-07T09:14:02.673Z,15.23
2019-02-07T09:16:46.030Z,14.57
2019-02-07T09:19:24.127Z,12.60
2019-02-07T09:21:55.445Z,14.27
2019-02-07T09:24:23.865Z,14.07
2019-02-07T09:26:55.290Z,11.13
2019-02-07T09:29:40.693Z,11.07
2019-02-07T09:32:15.033Z,10.43
2019-02-07T09:34:49.369Z,10.63
2019-02-07T09:37:23.668Z,11.50
2019-02-07T09:39:58.035Z,10.73
2019-02-07T09:42:26.295Z,10.43
2019-02-07T09:44:54.751Z,11.23
2019-02-07T09:47:23.294Z,9.53
2019-02-07T09:49:57.920Z,8.90
2019-02-07T09:52:35.416Z,8.87
2019-02-07T09:55:06.784Z,8.73
2019-02-07T09:57:35.189Z,8.80
2019-02-07T10:00:20.348Z,8.67
2019-02-07T10:02:48.861Z,8.50
2019-02-07T10:05:17.307Z,11.23
2019-02-07T10:07:54.424Z,9.13
2019-02-07T10:10:25.534Z,10.97
2019-02-07T10:13:10.952Z,13.13
2019-02-07T10:15:48.506Z,13.43
2019-02-07T10:18:19.878Z,9.60
2019-02-07T10:21:00.526Z,14.53
2019-02-07T10:23:45.337Z,12.17
2019-02-07T10:26:25.513Z,14.23
2019-02-07T10:29:11.890Z,14.67
2019-02-07T10:31:57.118Z,16.80
2019-02-07T10:34:31.286Z,13.93
2019-02-07T10:37:08.896Z,10.83
2019-02-07T10:39:37.712Z,13.50
2019-02-07T10:42:22.817Z,13.13
2019-02-07T10:45:00.045Z,11.47
2019-02-07T10:47:40.622Z,14.93
2019-02-07T10:50:30.725Z,14.50
2019-02-07T10:53:02.222Z,14.73
2019-02-07T10:55:36.698Z,17.33
2019-02-07T10:58:25.493Z,19.13
2019-02-07T11:00:59.029Z,15.30
2019-02-07T11:03:36.670Z,18.07
2019-02-07T11:06:14.330Z,18.90
2019-02-07T11:08:59.351Z,18.87
2019-02-07T11:11:28.110Z,18.90
2019-02-07T11:14:02.460Z,27.50
2019-02-07T11:16:36.528Z,23.00
2019-02-07T11:19:22.181Z,21.13
2019-02-07T11:21:50.691Z,25.80
2019-02-07T11:24:31.144Z,22.90
2019-02-07T11:27:08.459Z,22.00
2019-02-07T11:29:36.790Z,22.27
2019-02-07T11:32:17.300Z,24.77
2019-02-07T11:35:00.953Z,26.53
2019-02-07T11:37:32.370Z,24.17
2019-02-07T11:40:17.533Z,27.33
2019-02-07T11:43:02.915Z,27.97
2019-02-07T11:45:33.964Z,24.13
2019-02-07T11:48:08.296Z,27.60
2019-02-07T11:50:54.670Z,26.77
2019-02-07T11:53:38.131Z,24.00
2019-02-07T11:56:15.658Z,28.50
2019-02-07T11:59:02.441Z,24.60
2019-02-07T12:01:45.959Z,22.73
2019-02-07T12:04:14.363Z,24.93
2019-02-07T12:06:42.963Z,17.30
2019-02-07T12:09:11.467Z,26.07
2019-02-07T12:11:40.047Z,23.10
2019-02-07T12:14:20.375Z,26.50
2019-02-07T12:16:48.918Z,20.57
2019-02-07T12:19:23.275Z,22.20
2019-02-07T12:22:09.003Z,22.87
2019-02-07T12:24:54.137Z,21.43
2019-02-07T12:27:37.938Z,26.97
2019-02-07T12:30:19.269Z,24.40
2019-02-07T12:32:56.743Z,22.70
2019-02-07T12:35:34.088Z,21.43
2019-02-07T12:38:08.453Z,23.80
2019-02-07T12:40:37.163Z,22.53
2019-02-07T12:43:22.693Z,35.33
2019-02-07T12:45:54.296Z,26.57
2019-02-07T12:48:39.300Z,27.67
2019-02-07T12:51:07.802Z,23.57
2019-02-07T12:53:51.396Z,26.30
2019-02-07T12:56:22.715Z,19.63
2019-02-07T12:58:53.758Z,22.83
2019-02-07T13:01:22.258Z,24.03
2019-02-07T13:03:56.372Z,19.63
2019-02-07T13:06:43.238Z,24.90
2019-02-07T13:09:27.289Z,26.97
2019-02-07T13:11:55.870Z,18.57
2019-02-07T13:14:24.683Z,21.30
2019-02-07T13:16:53.197Z,19.53
2019-02-07T13:19:22.582Z,21.27
2019-02-07T13:21:53.677Z,21.43
2019-02-07T13:24:22.263Z,21.27
2019-02-07T13:26:53.764Z,19.70
2019-02-07T13:29:28.229Z,22.10
2019-02-07T13:31:56.750Z,22.50
2019-02-07T13:34:25.488Z,17.30
2019-02-07T13:36:53.802Z,21.93
2019-02-07T13:39:22.294Z,21.40
2019-02-07T13:41:50.876Z,9.03
2019-02-07T13:44:37.519Z,19.97
2019-02-07T13:47:08.877Z,20.77
2019-02-07T13:49:51.930Z,21.37
2019-02-07T13:52:25.616Z,13.93
2019-02-07T13:55:09.362Z,19.37
2019-02-07T13:57:46.725Z,18.97
2019-02-07T14:00:16.019Z,16.63
2019-02-07T14:03:00.965Z,15.67
2019-02-07T14:05:35.054Z,15.23
2019-02-07T14:08:03.520Z,14.93
2019-02-07T14:10:31.936Z,18.20
2019-02-07T14:13:18.504Z,15.93
2019-02-07T14:15:53.109Z,19.77
2019-02-07T14:18:27.282Z,21.43
2019-02-07T14:20:56.302Z,15.03
2019-02-07T14:23:29.827Z,14.30
2019-02-07T14:26:03.975Z,11.97
2019-02-07T14:28:35.579Z,15.50
2019-02-07T14:31:20.477Z,16.47
2019-02-07T14:33:52.089Z,17.63
2019-02-07T14:36:26.574Z,17.17
2019-02-07T14:39:00.717Z,15.53
2019-02-07T14:41:31.812Z,16.37
2019-02-07T14:44:18.508Z,12.87
2019-02-07T14:46:47.808Z,16.57
2019-02-07T14:49:14.498Z,13.00
2019-02-07T14:51:41.149Z,18.10
2019-02-07T14:54:07.687Z,12.87
2019-02-07T14:56:34.202Z,15.10
2019-02-07T17:46:40.020Z,12.07
2019-02-07T17:49:06.759Z,11.20
2019-02-07T17:51:33.264Z,12.80
2019-02-07T17:53:59.817Z,13.77
2019-02-07T17:56:26.452Z,14.93
2019-02-07T17:58:53.214Z,14.07
2019-02-07T18:01:19.854Z,10.00
2019-02-07T18:03:46.612Z,11.70
2019-02-07T18:06:13.668Z,11.03
2019-02-07T18:08:40.373Z,11.97
2019-02-07T18:11:07.063Z,11.50
2019-02-07T18:13:34.339Z,10.50
2019-02-07T18:16:01.123Z,11.70
2019-02-07T18:18:27.888Z,10.63
2019-02-07T18:20:54.593Z,14.73
2019-02-07T18:23:21.140Z,11.27
2019-02-07T18:25:48.033Z,10.77
2019-02-07T18:28:14.697Z,12.47
2019-02-07T18:30:41.419Z,13.80
2019-02-07T18:33:08.178Z,12.97
2019-02-07T18:35:35.062Z,10.30
2019-02-07T19:43:24.094Z,11.70
2019-02-07T19:45:50.908Z,13.30
2019-02-07T19:48:18.694Z,12.53
2019-02-07T19:50:45.526Z,9.47
2019-02-07T19:53:12.213Z,9.03
2019-02-07T19:55:39.015Z,10.67
2019-02-07T19:58:06.671Z,9.30
2019-02-07T20:00:34.035Z,7.63
2019-02-07T20:03:00.987Z,7.87
2019-02-07T20:05:28.235Z,7.63
2019-02-07T20:07:54.964Z,7.97
2019-02-07T20:10:29.125Z,7.70
2019-02-07T20:12:59.531Z,10.03
2019-02-07T20:15:36.456Z,6.13
2019-02-07T20:18:06.285Z,10.63
2019-02-07T20:20:33.089Z,9.77
2019-02-07T20:22:59.738Z,8.53
2019-02-07T20:25:27.214Z,10.73
2019-02-07T20:27:54.405Z,12.53
2019-02-07T20:30:31.370Z,7.03
2019-02-07T20:32:58.350Z,8.63
2019-02-07T20:35:25.358Z,10.80
2019-02-07T20:37:52.062Z,9.37
2019-02-07T20:40:24.566Z,8.37
2019-02-07T20:42:51.369Z,13.57
2019-02-07T20:45:18.958Z,9.10
2019-02-07T20:47:45.944Z,7.83
2019-02-07T20:50:20.333Z,6.23
2019-02-07T20:52:48.433Z,10.10
2019-02-07T20:55:15.331Z,7.83
2019-02-07T20:57:42.116Z,7.10
2019-02-07T21:00:22.658Z,8.40
2019-02-07T21:02:49.589Z,5.67
2019-02-07T21:05:17.620Z,7.47
2019-02-07T21:07:44.407Z,6.93
2019-02-07T21:10:18.309Z,7.10
2019-02-07T21:12:47.045Z,8.47
2019-02-07T21:15:18.872Z,8.23
2019-02-07T21:17:45.861Z,11.50
2019-02-07T21:20:20.234Z,7.30
2019-02-07T21:22:47.775Z,8.87
2019-02-07T21:25:27.978Z,10.87
2019-02-07T21:27:54.470Z,7.47
2019-02-07T21:30:28.152Z,10.17
2019-02-07T21:32:55.047Z,5.97
2019-02-07T21:35:22.475Z,10.30
2019-02-07T21:37:49.563Z,8.93
2019-02-07T21:40:20.120Z,8.87
2019-02-07T21:42:46.785Z,9.90
2019-02-07T21:45:16.507Z,5.93
2019-02-07T21:47:43.414Z,8.53
2019-02-07T21:50:22.566Z,9.70
2019-02-07T21:52:49.425Z,7.83
2019-02-07T21:55:19.221Z,10.60
2019-02-07T21:57:45.880Z,10.73
2019-02-07T22:00:25.858Z,13.60
2019-02-07T22:02:53.675Z,8.13
2019-02-07T22:05:20.306Z,7.53
2019-02-07T22:07:46.889Z,8.67
2019-02-07T22:10:15.760Z,10.90
2019-02-07T22:12:42.981Z,8.00
2019-02-07T22:15:19.915Z,11.30
2019-02-07T22:17:46.921Z,9.00
2019-02-07T22:20:16.731Z,7.80
2019-02-07T22:22:49.122Z,11.33
2019-02-07T22:25:12.465Z,10.40
2019-02-07T22:27:39.075Z,9.67
2019-02-07T22:30:13.706Z,9.63
2019-02-07T22:32:40.371Z,7.67
2019-02-07T22:35:09.397Z,7.20
2019-02-07T22:37:36.070Z,8.83
2019-02-07T22:40:08.125Z,9.80
2019-02-07T22:42:34.660Z,8.63
2019-02-07T22:45:01.277Z,10.13
2019-02-07T22:47:28.008Z,11.13
2019-02-07T22:49:54.429Z,8.43
2019-02-07T22:52:21.267Z,8.23
2019-02-07T22:54:47.883Z,7.07
2019-02-07T22:57:14.432Z,8.53
2019-02-07T22:59:41.045Z,11.00
2019-02-07T23:02:08.542Z,8.90
2019-02-07T23:04:34.988Z,10.43
2019-02-07T23:07:01.607Z,11.27
2019-02-07T23:09:28.232Z,9.10
2019-02-07T23:11:54.910Z,10.60
2019-02-07T23:14:21.680Z,12.03
2019-02-07T23:16:48.310Z,9.40
2019-02-07T23:19:15.015Z,12.80
2019-02-07T23:21:41.709Z,7.87
2019-02-07T23:24:08.437Z,9.37
2019-02-07T23:26:35.248Z,12.87
2019-02-07T23:29:02.015Z,8.60
2019-02-07T23:31:28.685Z,9.13
2019-02-07T23:33:55.209Z,6.93
2019-02-07T23:36:21.745Z,8.27
2019-02-07T23:38:48.291Z,8.00
2019-02-07T23:41:14.905Z,6.67
2019-02-07T23:43:46.217Z,12.70
2019-02-07T23:46:11.198Z,7.53
2019-02-07T23:48:37.927Z,7.87
2019-02-07T23:51:05.102Z,9.87
2019-02-07T23:53:31.847Z,12.20
2019-02-07T23:55:58.128Z,6.67
2019-02-07T23:58:24.809Z,11.53
